createdAt,value
2023-03-03T00:01:54.488Z,30.63
2023-03-03T00:04:25.468Z,28.17
2023-03-03T00:06:53.946Z,26.57
2023-03-03T00:09:22.770Z,30.20
2023-03-03T00:11:58.631Z,27.00
2023-03-03T00:14:31.016Z,29.60
2023-03-03T00:17:02.031Z,27.37
2023-03-03T00:19:39.102Z,29.77
2023-03-03T00:22:23.907Z,27.63
2023-03-03T00:24:52.441Z,30.80
2023-03-03T00:27:31.152Z,26.93
2023-03-03T00:30:01.711Z,28.60
2023-03-03T00:32:38.809Z,28.80
2023-03-03T00:35:25.143Z,28.87
2023-03-03T00:37:57.291Z,29.70
2023-03-03T00:40:28.358Z,27.23
2023-03-03T00:43:02.615Z,28.80
2023-03-03T00:45:36.412Z,26.83
2023-03-03T00:48:23.288Z,29.20
2023-03-03T00:50:53.298Z,27.40
2023-03-03T00:53:23.334Z,28.63
2023-03-03T00:55:53.090Z,28.20
2023-03-03T00:58:24.370Z,31.37
2023-03-03T01:00:56.728Z,27.30
2023-03-03T01:03:30.994Z,26.33
2023-03-03T01:05:59.894Z,27.47
2023-03-03T01:08:28.365Z,23.77
2023-03-03T01:10:59.959Z,25.27
2023-03-03T01:13:33.597Z,27.67
2023-03-03T01:16:06.093Z,27.67
2023-03-03T01:18:35.963Z,28.73
2023-03-03T01:21:07.905Z,26.23
2023-03-03T01:23:36.375Z,29.17
2023-03-03T01:26:06.153Z,27.13
2023-03-03T01:28:36.111Z,27.40
2023-03-03T01:31:06.248Z,26.63
2023-03-03T01:33:37.724Z,28.87
2023-03-03T01:36:07.728Z,25.60
2023-03-03T01:38:37.294Z,27.97
2023-03-03T01:41:06.385Z,25.47
2023-03-03T01:43:36.185Z,24.67
2023-03-03T01:46:32.801Z,29.53
2023-03-03T01:49:08.702Z,29.70
2023-03-03T01:51:43.261Z,24.37
2023-03-03T01:54:19.193Z,23.23
2023-03-03T01:56:48.112Z,27.77
2023-03-03T01:59:20.929Z,25.83
2023-03-03T02:01:51.011Z,27.60
2023-03-03T02:04:21.979Z,26.73
2023-03-03T02:06:55.910Z,27.23
2023-03-03T02:09:33.710Z,27.53
2023-03-03T02:12:08.162Z,25.90
2023-03-03T02:14:37.947Z,26.53
2023-03-03T02:17:07.903Z,24.50
2023-03-03T02:19:47.652Z,28.57
2023-03-03T02:22:19.902Z,25.30
2023-03-03T02:24:52.112Z,25.00
2023-03-03T02:27:23.055Z,28.77
2023-03-03T02:29:52.259Z,24.60
2023-03-03T02:32:20.558Z,30.57
2023-03-03T02:34:50.526Z,28.80
2023-03-03T02:37:20.353Z,24.13
2023-03-03T02:39:51.866Z,28.07
2023-03-03T02:42:27.242Z,25.93
2023-03-03T02:44:57.325Z,25.93
2023-03-03T02:47:25.833Z,24.93
2023-03-03T02:49:54.330Z,26.87
2023-03-03T02:52:22.650Z,26.87
2023-03-03T02:54:51.428Z,25.20
2023-03-03T02:57:19.726Z,27.43
2023-03-03T02:59:53.126Z,27.57
2023-03-03T03:02:22.484Z,25.70
2023-03-03T03:04:50.881Z,25.23
2023-03-03T03:07:26.294Z,28.57
2023-03-03T03:09:54.879Z,24.57
2023-03-03T03:12:23.602Z,29.10
2023-03-03T03:14:56.638Z,26.43
2023-03-03T03:17:25.079Z,26.70
2023-03-03T03:19:54.800Z,30.03
2023-03-03T03:22:23.633Z,31.77
2023-03-03T03:24:51.893Z,31.10
2023-03-03T03:27:20.337Z,30.70
2023-03-03T03:29:50.166Z,32.70
2023-03-03T03:32:20.867Z,32.93
2023-03-03T03:34:49.505Z,36.03
2023-03-03T03:37:17.971Z,33.23
2023-03-03T03:39:47.746Z,32.77
2023-03-03T03:42:16.313Z,39.33
2023-03-03T03:44:44.929Z,37.40
2023-03-03T03:47:13.346Z,36.37
2023-03-03T03:49:45.379Z,41.33
2023-03-03T03:52:14.507Z,37.43
2023-03-03T03:54:44.015Z,38.63
2023-03-03T03:57:14.590Z,39.17
2023-03-03T03:59:44.389Z,40.73
2023-03-03T04:02:13.056Z,35.87
2023-03-03T04:04:44.830Z,37.27
2023-03-03T04:07:14.603Z,38.07
2023-03-03T04:09:43.624Z,37.47
2023-03-03T04:12:12.531Z,37.70
2023-03-03T04:14:41.426Z,36.33
2023-03-03T04:17:09.800Z,37.80
2023-03-03T04:19:38.085Z,36.50
2023-03-03T04:22:09.240Z,37.13
2023-03-03T04:24:37.678Z,35.97
2023-03-03T04:27:06.598Z,39.10
2023-03-03T04:29:35.133Z,40.43
2023-03-03T04:32:03.921Z,42.57
2023-03-03T04:34:33.983Z,40.07
2023-03-03T04:37:03.087Z,42.63
2023-03-03T04:39:32.966Z,43.07
2023-03-03T04:42:01.249Z,42.80
2023-03-03T04:44:30.136Z,43.33
2023-03-03T04:46:58.500Z,43.73
2023-03-03T04:49:26.995Z,44.23
2023-03-03T04:51:55.536Z,48.17
2023-03-03T04:54:24.184Z,41.93
2023-03-03T04:56:53.884Z,42.10
2023-03-03T04:59:22.162Z,45.73
2023-03-03T05:01:53.602Z,44.03
2023-03-03T05:04:22.143Z,44.53
2023-03-03T05:06:50.584Z,45.13
2023-03-03T05:09:18.903Z,45.40
2023-03-03T05:11:47.235Z,45.97
2023-03-03T05:14:16.938Z,46.77
2023-03-03T05:16:45.296Z,47.03
2023-03-03T05:19:13.847Z,48.13
2023-03-03T05:21:43.012Z,50.83
2023-03-03T05:24:12.175Z,51.50
2023-03-03T05:26:40.606Z,52.43
2023-03-03T05:29:10.077Z,47.00
2023-03-03T05:31:39.839Z,48.97
2023-03-03T05:34:08.139Z,50.47
2023-03-03T05:36:36.449Z,55.73
2023-03-03T05:39:05.544Z,49.20
2023-03-03T05:41:36.774Z,53.43
2023-03-03T05:44:05.127Z,48.90
2023-03-03T05:46:33.578Z,49.50
2023-03-03T05:49:03.554Z,47.43
2023-03-03T05:51:31.900Z,52.57
2023-03-03T05:54:00.237Z,53.17
2023-03-03T05:56:28.536Z,55.50
2023-03-03T05:58:57.049Z,58.20
2023-03-03T06:01:25.405Z,53.20
2023-03-03T06:03:53.870Z,58.73
2023-03-03T06:06:23.613Z,51.23
2023-03-03T06:08:55.548Z,58.40
2023-03-03T06:11:25.569Z,56.60
2023-03-03T06:13:53.877Z,63.43
2023-03-03T06:16:22.224Z,63.07
2023-03-03T06:18:50.571Z,65.73
2023-03-03T06:21:19.241Z,60.67
2023-03-03T06:23:49.327Z,67.13
2023-03-03T06:26:17.777Z,57.73
2023-03-03T06:28:46.583Z,66.03
2023-03-03T06:31:15.083Z,66.03
2023-03-03T06:33:43.663Z,64.37
2023-03-03T06:36:12.199Z,60.30
2023-03-03T06:38:40.517Z,63.83
2023-03-03T06:41:10.408Z,61.77
2023-03-03T06:43:39.227Z,64.23
2023-03-03T06:50:44.505Z,63.17
2023-03-03T07:00:20.504Z,62.17
2023-03-03T07:04:01.047Z,63.77
2023-03-03T07:07:26.338Z,62.67
2023-03-03T07:10:50.468Z,65.90
2023-03-03T07:14:21.065Z,64.17
2023-03-03T07:17:45.648Z,64.03
2023-03-03T07:20:45.687Z,68.67
2023-03-03T07:23:46.431Z,63.97
2023-03-03T07:26:46.410Z,65.80
2023-03-03T07:29:26.398Z,71.10
2023-03-03T07:32:26.151Z,73.23
2023-03-03T07:35:56.355Z,93.33
2023-03-03T07:39:37.246Z,68.87
2023-03-03T07:45:45.678Z,68.20
2023-03-03T07:48:25.031Z,66.30
2023-03-03T07:50:53.999Z,71.70
2023-03-03T07:53:29.250Z,68.13
2023-03-03T07:55:57.912Z,69.00
2023-03-03T07:58:34.478Z,70.53
2023-03-03T08:01:33.010Z,63.17
2023-03-03T08:04:07.490Z,62.07
2023-03-03T08:06:46.017Z,63.30
2023-03-03T08:09:47.876Z,62.20
2023-03-03T08:12:39.201Z,56.93
2023-03-03T08:15:20.590Z,53.53
2023-03-03T08:17:50.712Z,53.87
2023-03-03T08:20:45.155Z,53.03
2023-03-03T08:23:14.964Z,51.00
2023-03-03T08:25:48.593Z,52.10
2023-03-03T08:28:21.493Z,49.73
2023-03-03T08:31:05.541Z,58.93
2023-03-03T08:33:45.179Z,50.50
2023-03-03T08:36:18.252Z,50.80
2023-03-03T08:38:55.245Z,52.07
2023-03-03T08:41:23.771Z,52.07
2023-03-03T08:43:52.206Z,48.40
2023-03-03T08:46:20.749Z,49.03
2023-03-03T08:48:49.719Z,46.93
2023-03-03T08:51:19.640Z,47.97
2023-03-03T08:54:40.643Z,45.17
2023-03-03T09:00:59.213Z,42.57
2023-03-03T09:03:44.548Z,44.37
2023-03-03T09:07:42.224Z,43.47
2023-03-03T09:11:14.355Z,40.73
2023-03-03T09:13:53.447Z,46.50
2023-03-03T09:16:29.955Z,43.50
2023-03-03T09:19:37.413Z,42.23
2023-03-03T09:22:28.579Z,42.20
2023-03-03T09:25:06.610Z,41.07
2023-03-03T09:27:41.213Z,42.17
2023-03-03T09:30:44.134Z,40.40
2023-03-03T09:33:31.710Z,48.27
2023-03-03T09:36:22.159Z,41.80
2023-03-03T09:38:54.537Z,38.90
2023-03-03T09:42:30.655Z,40.20
2023-03-03T09:45:39.117Z,38.13
2023-03-03T09:48:50.333Z,37.87
2023-03-03T09:51:47.082Z,38.57
2023-03-03T09:54:36.211Z,38.90
2023-03-03T09:57:16.545Z,37.00
2023-03-03T10:00:17.260Z,37.37
2023-03-03T10:03:04.422Z,36.53
2023-03-03T10:05:46.557Z,37.37
2023-03-03T10:08:31.769Z,35.60
2023-03-03T10:11:08.677Z,33.67
2023-03-03T10:13:55.118Z,35.87
2023-03-03T10:16:52.460Z,32.67
2023-03-03T10:19:39.498Z,31.33
2023-03-03T10:22:21.295Z,32.30
2023-03-03T10:25:06.205Z,31.90
2023-03-03T10:28:08.659Z,33.07
2023-03-03T10:31:11.218Z,33.27
2023-03-03T10:33:51.223Z,29.63
2023-03-03T10:36:48.942Z,31.30
2023-03-03T10:39:43.005Z,29.13
2023-03-03T10:42:28.588Z,28.80
2023-03-03T10:45:25.778Z,28.53
2023-03-03T10:48:17.805Z,28.13
2023-03-03T10:50:55.265Z,29.57
2023-03-03T10:53:36.729Z,30.33
2023-03-03T10:56:29.654Z,27.37
2023-03-03T10:59:12.516Z,27.63
2023-03-03T11:01:54.533Z,28.43
2023-03-03T11:04:33.936Z,26.63
2023-03-03T11:07:10.116Z,28.43
2023-03-03T11:10:06.196Z,26.57
2023-03-03T11:12:57.694Z,27.47
2023-03-03T11:15:46.530Z,27.67
2023-03-03T11:18:39.359Z,26.70
2023-03-03T11:21:16.940Z,28.90
2023-03-03T11:24:03.244Z,25.07
2023-03-03T11:26:47.798Z,25.37
2023-03-03T11:29:29.020Z,25.80
2023-03-03T11:31:58.779Z,26.07
2023-03-03T11:34:48.960Z,28.23
2023-03-03T11:37:22.370Z,25.63
2023-03-03T11:39:54.507Z,25.43
2023-03-03T11:42:29.039Z,23.97
2023-03-03T11:45:04.133Z,23.90
2023-03-03T11:47:39.740Z,23.20
2023-03-03T11:50:16.467Z,24.50
2023-03-03T11:52:49.958Z,25.17
2023-03-03T11:55:23.771Z,22.17
2023-03-03T11:58:01.102Z,20.60
2023-03-03T12:00:33.737Z,21.53
2023-03-03T12:03:30.357Z,21.47
2023-03-03T12:06:13.355Z,18.87
2023-03-03T12:09:01.850Z,19.53
2023-03-03T12:11:38.633Z,19.80
2023-03-03T12:14:19.279Z,20.97
2023-03-03T12:16:56.636Z,21.23
2023-03-03T12:19:43.003Z,18.83
2023-03-03T12:22:24.099Z,22.03
2023-03-03T12:25:23.248Z,22.17
2023-03-03T12:27:58.045Z,19.73
2023-03-03T12:30:55.670Z,19.13
2023-03-03T12:33:34.784Z,17.83
2023-03-03T12:36:15.121Z,17.87
2023-03-03T12:38:53.313Z,19.70
2023-03-03T12:41:28.289Z,21.37
2023-03-03T13:56:25.083Z,23.93
2023-03-03T13:59:07.631Z,22.73
2023-03-03T14:01:51.834Z,24.23
2023-03-03T14:04:34.486Z,24.97
2023-03-03T14:07:14.675Z,23.60
2023-03-03T14:10:00.981Z,23.27
2023-03-03T14:12:44.159Z,22.47
2023-03-03T14:15:31.320Z,24.13
2023-03-03T14:18:17.111Z,22.43
2023-03-03T14:20:55.133Z,23.60
2023-03-03T14:23:40.361Z,22.03
2023-03-03T14:26:24.353Z,21.43
2023-03-03T14:29:21.718Z,22.70
2023-03-03T14:31:56.157Z,20.33
2023-03-03T14:34:40.168Z,21.50
2023-03-03T14:37:26.636Z,21.37
2023-03-03T14:40:33.569Z,22.97
2023-03-03T14:43:27.167Z,19.80
2023-03-03T14:45:57.671Z,20.17
2023-03-03T14:48:32.622Z,20.93
2023-03-03T14:56:15.330Z,16.43
2023-03-03T16:34:03.444Z,12.77
2023-03-03T16:36:44.435Z,12.53
2023-03-03T18:47:21.244Z,10.07
2023-03-03T18:49:57.995Z,10.43
2023-03-03T18:53:01.920Z,13.37
2023-03-03T18:55:53.617Z,9.30
2023-03-03T18:58:46.808Z,10.93
2023-03-03T19:01:57.779Z,8.63
2023-03-03T19:04:47.876Z,9.97
2023-03-03T19:07:27.021Z,16.80
2023-03-03T19:09:58.337Z,11.43
2023-03-03T19:12:58.892Z,12.70
2023-03-03T19:15:47.485Z,9.57
2023-03-03T19:18:20.397Z,15.27
2023-03-03T19:20:56.212Z,14.23
2023-03-03T19:23:35.209Z,14.40
2023-03-03T19:26:45.497Z,12.40
2023-03-03T19:29:37.816Z,12.57
2023-03-03T19:32:26.537Z,8.87
2023-03-03T19:35:05.017Z,8.17
2023-03-03T19:38:00.165Z,10.17
2023-03-03T19:40:34.025Z,10.57
2023-03-03T19:43:25.834Z,9.37
2023-03-03T19:46:10.945Z,8.67
2023-03-03T19:48:48.688Z,10.90
2023-03-03T19:51:26.064Z,11.83
2023-03-03T19:54:04.335Z,11.57
2023-03-03T19:56:42.594Z,9.97
2023-03-03T19:59:27.616Z,11.10
2023-03-03T20:02:16.286Z,24.50
2023-03-03T20:04:58.343Z,11.93
2023-03-03T20:07:39.070Z,11.10
2023-03-03T20:10:29.684Z,10.17
2023-03-03T20:13:14.402Z,11.50
2023-03-03T20:15:52.552Z,11.17
2023-03-03T20:18:42.680Z,12.07
2023-03-03T20:21:22.960Z,15.20
2023-03-03T20:24:02.471Z,17.00
2023-03-03T20:26:40.154Z,17.87
2023-03-03T20:29:22.170Z,16.90
2023-03-03T20:31:57.834Z,11.73
2023-03-03T20:34:38.701Z,13.50
2023-03-03T20:37:12.262Z,16.40
2023-03-03T20:39:52.798Z,12.80
2023-03-03T20:42:36.493Z,23.50
2023-03-03T20:45:19.392Z,14.33
2023-03-03T20:47:56.578Z,20.60
2023-03-03T20:50:36.587Z,20.27
2023-03-03T20:53:19.534Z,19.13
2023-03-03T20:55:58.645Z,19.73
2023-03-03T20:58:39.294Z,38.20
2023-03-03T21:01:09.661Z,42.30
2023-03-03T21:03:40.876Z,24.27
2023-03-03T21:06:15.442Z,15.00
2023-03-03T21:08:48.511Z,17.67
2023-03-03T21:11:19.628Z,15.27
2023-03-03T21:13:54.228Z,13.00
2023-03-03T21:16:35.738Z,12.50
2023-03-03T21:19:06.747Z,12.10
2023-03-03T21:21:37.946Z,14.77
2023-03-03T21:24:07.562Z,14.00
2023-03-03T21:26:46.965Z,16.47
2023-03-03T21:29:22.820Z,13.33
2023-03-03T21:31:52.783Z,14.50
2023-03-03T21:34:40.048Z,13.30
2023-03-03T21:37:11.170Z,13.90
2023-03-03T21:39:41.230Z,15.53
2023-03-03T21:42:12.102Z,14.37
2023-03-03T21:44:46.464Z,13.53
2023-03-03T21:47:16.563Z,13.90
2023-03-03T21:49:46.516Z,12.80
2023-03-03T21:52:16.895Z,15.47
2023-03-03T21:54:46.141Z,12.63
2023-03-03T21:57:15.124Z,11.80
2023-03-03T21:59:45.140Z,12.03
2023-03-03T22:02:13.905Z,13.83
2023-03-03T22:04:42.391Z,16.40
2023-03-03T22:07:11.353Z,14.13
2023-03-03T22:09:40.331Z,14.77
2023-03-03T22:12:09.164Z,20.10
2023-03-03T22:14:37.807Z,17.57
2023-03-03T22:17:07.782Z,16.10
2023-03-03T22:19:37.503Z,16.10
2023-03-03T22:22:06.295Z,13.77
2023-03-03T22:24:34.870Z,11.87
2023-03-03T22:27:03.532Z,13.40
2023-03-03T22:29:32.111Z,15.23
2023-03-03T22:32:00.634Z,15.87
2023-03-03T22:34:30.697Z,11.97
2023-03-03T22:36:59.157Z,14.80
2023-03-03T22:39:27.636Z,15.53
2023-03-03T22:41:56.158Z,12.70
2023-03-03T22:44:24.579Z,16.73
2023-03-03T22:46:53.093Z,15.30
2023-03-03T22:49:21.580Z,13.67
2023-03-03T22:51:54.469Z,13.67
2023-03-03T22:54:22.995Z,14.03
2023-03-03T22:56:54.308Z,12.93
2023-03-03T22:59:23.476Z,11.73
2023-03-03T23:01:52.351Z,13.17
2023-03-03T23:04:23.541Z,14.90
2023-03-03T23:06:53.363Z,16.20
2023-03-03T23:09:22.988Z,12.97
2023-03-03T23:11:51.439Z,16.40
2023-03-03T23:14:21.704Z,12.87
2023-03-03T23:16:50.118Z,12.60
2023-03-03T23:19:18.640Z,16.23
2023-03-03T23:21:47.086Z,11.73
2023-03-03T23:24:16.702Z,10.30
2023-03-03T23:26:45.102Z,13.93
2023-03-03T23:29:13.477Z,15.17
2023-03-03T23:31:41.851Z,12.83
2023-03-03T23:34:10.259Z,15.20
2023-03-03T23:36:38.594Z,12.10
2023-03-03T23:39:06.985Z,11.27
2023-03-03T23:41:38.369Z,12.93
2023-03-03T23:44:06.709Z,14.93
2023-03-03T23:46:35.235Z,15.33
2023-03-03T23:49:03.899Z,13.60
2023-03-03T23:51:32.146Z,12.43
2023-03-03T23:54:00.631Z,11.53
2023-03-03T23:56:29.091Z,15.37
2023-03-03T23:58:58.954Z,11.33
